sensor_id;sensor_type;location;lat;lon;timestamp;pressure;altitude;pressure_sealevel;temperature;humidity
70841;BME280;58465;51.534;9.934;2022-07-29T00:02:00;100065.88;;;19.91;39.21
70841;BME280;58465;51.534;9.934;2022-07-29T00:04:26;100056.38;;;19.84;39.55
70841;BME280;58465;51.534;9.934;2022-07-29T00:06:51;100055.88;;;19.78;39.43
70841;BME280;58465;51.534;9.934;2022-07-29T00:09:16;100051.69;;;19.72;39.59
70841;BME280;58465;51.534;9.934;2022-07-29T00:11:42;100052.31;;;19.61;39.86
70841;BME280;58465;51.534;9.934;2022-07-29T00:14:07;100048.16;;;19.56;40.28
70841;BME280;58465;51.534;9.934;2022-07-29T00:16:33;100042.03;;;19.52;40.14
70841;BME280;58465;51.534;9.934;2022-07-29T00:18:58;100045.16;;;19.45;40.41
70841;BME280;58465;51.534;9.934;2022-07-29T00:21:23;100036.00;;;19.47;40.42
70841;BME280;58465;51.534;9.934;2022-07-29T00:23:48;100040.41;;;19.50;40.44
70841;BME280;58465;51.534;9.934;2022-07-29T00:26:14;100040.53;;;19.47;40.41
70841;BME280;58465;51.534;9.934;2022-07-29T00:28:39;100039.66;;;19.46;40.66
70841;BME280;58465;51.534;9.934;2022-07-29T00:31:04;100032.56;;;19.44;40.60
70841;BME280;58465;51.534;9.934;2022-07-29T00:33:30;100031.63;;;19.45;40.73
70841;BME280;58465;51.534;9.934;2022-07-29T00:35:55;100038.94;;;19.43;40.74
70841;BME280;58465;51.534;9.934;2022-07-29T00:38:21;100026.94;;;19.48;40.73
70841;BME280;58465;51.534;9.934;2022-07-29T00:40:46;100030.31;;;19.52;40.75
70841;BME280;58465;51.534;9.934;2022-07-29T00:43:13;100032.94;;;19.53;40.49
70841;BME280;58465;51.534;9.934;2022-07-29T00:45:40;100034.44;;;19.59;40.49
70841;BME280;58465;51.534;9.934;2022-07-29T00:48:06;100026.22;;;19.60;40.43
70841;BME280;58465;51.534;9.934;2022-07-29T00:50:33;100022.00;;;19.55;40.41
70841;BME280;58465;51.534;9.934;2022-07-29T00:52:59;100016.59;;;19.55;40.78
70841;BME280;58465;51.534;9.934;2022-07-29T00:55:26;100014.69;;;19.57;40.57
70841;BME280;58465;51.534;9.934;2022-07-29T00:57:52;100014.38;;;19.61;40.32
70841;BME280;58465;51.534;9.934;2022-07-29T01:00:20;100017.09;;;19.61;40.41
70841;BME280;58465;51.534;9.934;2022-07-29T01:02:47;100017.88;;;19.63;40.42
70841;BME280;58465;51.534;9.934;2022-07-29T01:05:14;100018.75;;;19.64;40.50
70841;BME280;58465;51.534;9.934;2022-07-29T01:07:41;100014.50;;;19.60;40.58
70841;BME280;58465;51.534;9.934;2022-07-29T01:10:08;100011.09;;;19.56;40.85
70841;BME280;58465;51.534;9.934;2022-07-29T01:12:35;100014.13;;;19.66;40.51
70841;BME280;58465;51.534;9.934;2022-07-29T01:15:03;100012.47;;;19.63;40.51
70841;BME280;58465;51.534;9.934;2022-07-29T01:17:32;100009.84;;;19.62;40.81
70841;BME280;58465;51.534;9.934;2022-07-29T01:20:03;100003.53;;;19.61;40.69
70841;BME280;58465;51.534;9.934;2022-07-29T01:22:37;100007.25;;;19.60;40.79
70841;BME280;58465;51.534;9.934;2022-07-29T01:25:32;100001.72;;;19.62;41.08
70841;BME280;58465;51.534;9.934;2022-07-29T01:30:41;100001.72;;;19.62;41.00
70841;BME280;58465;51.534;9.934;2022-07-29T01:33:17;99997.38;;;19.59;41.03
70841;BME280;58465;51.534;9.934;2022-07-29T01:36:07;99990.88;;;19.62;40.87
70841;BME280;58465;51.534;9.934;2022-07-29T01:38:37;99989.25;;;19.59;41.30
70841;BME280;58465;51.534;9.934;2022-07-29T01:41:08;99986.22;;;19.50;41.42
70841;BME280;58465;51.534;9.934;2022-07-29T01:43:41;99992.50;;;19.35;42.11
70841;BME280;58465;51.534;9.934;2022-07-29T01:46:12;99988.41;;;19.27;42.00
70841;BME280;58465;51.534;9.934;2022-07-29T01:48:56;99982.16;;;19.11;43.18
70841;BME280;58465;51.534;9.934;2022-07-29T01:51:30;99982.50;;;19.05;43.28
70841;BME280;58465;51.534;9.934;2022-07-29T01:54:26;99979.28;;;18.99;43.29
70841;BME280;58465;51.534;9.934;2022-07-29T01:56:55;99978.88;;;18.90;43.16
70841;BME280;58465;51.534;9.934;2022-07-29T01:59:23;99977.28;;;18.86;43.27
70841;BME280;58465;51.534;9.934;2022-07-29T02:01:52;99975.44;;;18.87;43.60
70841;BME280;58465;51.534;9.934;2022-07-29T02:04:18;99968.38;;;18.84;43.99
70841;BME280;58465;51.534;9.934;2022-07-29T02:06:46;99970.13;;;18.85;44.06
70841;BME280;58465;51.534;9.934;2022-07-29T02:09:13;99969.88;;;18.90;43.74
70841;BME280;58465;51.534;9.934;2022-07-29T02:11:44;99967.16;;;18.90;43.83
70841;BME280;58465;51.534;9.934;2022-07-29T02:14:14;99965.25;;;18.92;44.02
70841;BME280;58465;51.534;9.934;2022-07-29T02:16:40;99965.94;;;18.96;43.85
70841;BME280;58465;51.534;9.934;2022-07-29T02:19:06;99965.06;;;18.95;43.83
70841;BME280;58465;51.534;9.934;2022-07-29T02:21:35;99962.63;;;18.90;43.85
70841;BME280;58465;51.534;9.934;2022-07-29T02:24:01;99956.50;;;18.87;44.19
70841;BME280;58465;51.534;9.934;2022-07-29T02:26:29;99953.13;;;18.83;44.22
70841;BME280;58465;51.534;9.934;2022-07-29T02:28:57;99953.88;;;18.85;44.14
70841;BME280;58465;51.534;9.934;2022-07-29T02:31:28;99947.72;;;18.83;44.17
70841;BME280;58465;51.534;9.934;2022-07-29T02:33:55;99942.91;;;18.88;43.33
70841;BME280;58465;51.534;9.934;2022-07-29T02:36:22;99957.81;;;18.96;43.44
70841;BME280;58465;51.534;9.934;2022-07-29T02:38:49;99951.28;;;19.00;43.05
70841;BME280;58465;51.534;9.934;2022-07-29T02:41:18;99948.38;;;19.03;43.14
70841;BME280;58465;51.534;9.934;2022-07-29T02:43:47;99950.09;;;19.04;43.05
70841;BME280;58465;51.534;9.934;2022-07-29T02:46:17;99952.13;;;19.00;43.05
70841;BME280;58465;51.534;9.934;2022-07-29T02:48:51;99962.19;;;18.98;43.08
70841;BME280;58465;51.534;9.934;2022-07-29T02:51:27;99955.19;;;18.94;43.47
70841;BME280;58465;51.534;9.934;2022-07-29T02:53:56;99949.44;;;18.84;43.86
70841;BME280;58465;51.534;9.934;2022-07-29T02:56:25;99951.63;;;18.78;43.96
70841;BME280;58465;51.534;9.934;2022-07-29T02:58:55;99948.94;;;18.78;44.07
70841;BME280;58465;51.534;9.934;2022-07-29T03:01:23;99940.31;;;18.71;44.20
70841;BME280;58465;51.534;9.934;2022-07-29T03:03:52;99943.97;;;18.70;44.45
70841;BME280;58465;51.534;9.934;2022-07-29T03:06:20;99943.16;;;18.68;44.15
70841;BME280;58465;51.534;9.934;2022-07-29T03:08:47;99941.13;;;18.56;44.50
70841;BME280;58465;51.534;9.934;2022-07-29T03:11:13;99938.78;;;18.50;44.89
70841;BME280;58465;51.534;9.934;2022-07-29T03:13:39;99942.53;;;18.47;45.36
70841;BME280;58465;51.534;9.934;2022-07-29T03:16:05;99939.38;;;18.39;45.43
70841;BME280;58465;51.534;9.934;2022-07-29T03:18:31;99932.31;;;18.37;45.41
70841;BME280;58465;51.534;9.934;2022-07-29T03:20:57;99934.50;;;18.30;45.65
70841;BME280;58465;51.534;9.934;2022-07-29T03:23:22;99927.84;;;18.20;45.87
70841;BME280;58465;51.534;9.934;2022-07-29T03:25:52;99923.25;;;18.22;45.68
70841;BME280;58465;51.534;9.934;2022-07-29T03:28:18;99922.44;;;18.20;45.99
70841;BME280;58465;51.534;9.934;2022-07-29T03:30:44;99928.00;;;18.17;46.04
70841;BME280;58465;51.534;9.934;2022-07-29T03:33:10;99922.81;;;18.14;46.30
70841;BME280;58465;51.534;9.934;2022-07-29T03:35:35;99919.91;;;18.17;46.00
70841;BME280;58465;51.534;9.934;2022-07-29T03:38:01;99921.06;;;18.13;46.34
70841;BME280;58465;51.534;9.934;2022-07-29T03:43:32;99924.72;;;18.12;46.50
70841;BME280;58465;51.534;9.934;2022-07-29T03:45:59;99927.56;;;18.09;46.26
70841;BME280;58465;51.534;9.934;2022-07-29T03:48:26;99923.47;;;18.02;46.45
70841;BME280;58465;51.534;9.934;2022-07-29T03:50:54;99931.03;;;17.95;46.81
70841;BME280;58465;51.534;9.934;2022-07-29T03:53:20;99928.84;;;17.86;47.13
70841;BME280;58465;51.534;9.934;2022-07-29T03:55:48;99931.47;;;17.88;47.42
70841;BME280;58465;51.534;9.934;2022-07-29T03:58:16;99935.28;;;17.84;47.38
70841;BME280;58465;51.534;9.934;2022-07-29T04:00:43;99929.94;;;17.82;47.63
70841;BME280;58465;51.534;9.934;2022-07-29T04:03:09;99932.03;;;17.77;47.73
70841;BME280;58465;51.534;9.934;2022-07-29T04:05:35;99937.53;;;17.75;47.60
70841;BME280;58465;51.534;9.934;2022-07-29T04:08:00;99946.72;;;17.71;48.02
70841;BME280;58465;51.534;9.934;2022-07-29T04:10:26;99941.31;;;17.71;47.90
70841;BME280;58465;51.534;9.934;2022-07-29T04:12:51;99943.81;;;17.76;47.79
70841;BME280;58465;51.534;9.934;2022-07-29T04:15:17;99943.81;;;17.76;48.08
70841;BME280;58465;51.534;9.934;2022-07-29T04:17:42;99945.63;;;17.75;47.68
70841;BME280;58465;51.534;9.934;2022-07-29T04:20:08;99944.50;;;17.79;47.58
70841;BME280;58465;51.534;9.934;2022-07-29T04:22:34;99934.03;;;17.73;47.65
70841;BME280;58465;51.534;9.934;2022-07-29T04:24:59;99930.44;;;17.73;47.82
70841;BME280;58465;51.534;9.934;2022-07-29T04:27:25;99939.44;;;17.73;48.02
70841;BME280;58465;51.534;9.934;2022-07-29T04:29:50;99937.44;;;17.77;47.86
70841;BME280;58465;51.534;9.934;2022-07-29T04:32:15;99933.53;;;17.83;47.67
70841;BME280;58465;51.534;9.934;2022-07-29T04:34:40;99941.06;;;17.93;47.40
70841;BME280;58465;51.534;9.934;2022-07-29T04:37:06;99936.03;;;18.03;47.15
70841;BME280;58465;51.534;9.934;2022-07-29T04:39:31;99944.16;;;18.18;46.95
70841;BME280;58465;51.534;9.934;2022-07-29T04:41:56;99938.59;;;18.22;46.99
70841;BME280;58465;51.534;9.934;2022-07-29T04:44:22;99940.06;;;18.27;46.51
70841;BME280;58465;51.534;9.934;2022-07-29T04:46:47;99934.84;;;18.24;46.82
70841;BME280;58465;51.534;9.934;2022-07-29T04:49:12;99933.78;;;18.27;46.97
70841;BME280;58465;51.534;9.934;2022-07-29T04:51:38;99938.78;;;18.34;46.99
70841;BME280;58465;51.534;9.934;2022-07-29T04:54:03;99938.44;;;18.40;46.83
70841;BME280;58465;51.534;9.934;2022-07-29T04:56:29;99946.97;;;18.48;46.64
70841;BME280;58465;51.534;9.934;2022-07-29T04:58:54;99947.06;;;18.47;46.65
70841;BME280;58465;51.534;9.934;2022-07-29T05:01:19;99972.72;;;18.55;46.28
70841;BME280;58465;51.534;9.934;2022-07-29T05:03:45;99972.94;;;18.68;46.16
70841;BME280;58465;51.534;9.934;2022-07-29T05:06:10;99968.81;;;18.77;45.91
70841;BME280;58465;51.534;9.934;2022-07-29T05:08:36;99967.06;;;18.76;45.90
70841;BME280;58465;51.534;9.934;2022-07-29T05:11:02;99965.59;;;18.70;46.30
70841;BME280;58465;51.534;9.934;2022-07-29T05:13:28;99962.97;;;18.69;46.88
70841;BME280;58465;51.534;9.934;2022-07-29T05:15:53;99950.25;;;18.71;46.29
70841;BME280;58465;51.534;9.934;2022-07-29T05:18:19;99950.41;;;18.68;46.37
70841;BME280;58465;51.534;9.934;2022-07-29T05:20:44;99957.22;;;18.75;46.33
70841;BME280;58465;51.534;9.934;2022-07-29T05:23:09;99951.44;;;18.65;46.00
70841;BME280;58465;51.534;9.934;2022-07-29T05:25:37;99959.75;;;18.62;46.67
70841;BME280;58465;51.534;9.934;2022-07-29T05:28:03;99959.06;;;18.59;46.37
70841;BME280;58465;51.534;9.934;2022-07-29T05:30:28;99961.75;;;18.59;46.27
70841;BME280;58465;51.534;9.934;2022-07-29T05:32:54;99960.72;;;18.61;46.72
70841;BME280;58465;51.534;9.934;2022-07-29T05:35:19;99949.03;;;18.61;47.09
70841;BME280;58465;51.534;9.934;2022-07-29T05:37:44;99944.66;;;18.58;46.83
70841;BME280;58465;51.534;9.934;2022-07-29T05:40:10;99939.66;;;18.50;47.10
70841;BME280;58465;51.534;9.934;2022-07-29T05:42:35;99950.06;;;18.58;48.17
70841;BME280;58465;51.534;9.934;2022-07-29T05:45:01;99950.69;;;18.63;47.64
70841;BME280;58465;51.534;9.934;2022-07-29T05:47:27;99944.69;;;18.74;47.06
70841;BME280;58465;51.534;9.934;2022-07-29T05:49:52;99947.06;;;18.94;46.45
70841;BME280;58465;51.534;9.934;2022-07-29T05:52:19;99944.53;;;19.07;46.14
70841;BME280;58465;51.534;9.934;2022-07-29T05:54:44;99935.78;;;19.17;45.80
70841;BME280;58465;51.534;9.934;2022-07-29T05:57:17;99941.75;;;19.38;45.31
70841;BME280;58465;51.534;9.934;2022-07-29T05:59:42;99946.53;;;19.49;45.31
70841;BME280;58465;51.534;9.934;2022-07-29T06:02:07;99948.44;;;19.77;44.47
70841;BME280;58465;51.534;9.934;2022-07-29T06:04:33;99950.22;;;20.06;44.44
70841;BME280;58465;51.534;9.934;2022-07-29T06:06:59;99951.47;;;20.43;43.25
70841;BME280;58465;51.534;9.934;2022-07-29T06:09:24;99959.75;;;20.68;42.68
70841;BME280;58465;51.534;9.934;2022-07-29T06:11:51;99954.41;;;20.81;42.18
70841;BME280;58465;51.534;9.934;2022-07-29T06:14:17;99956.13;;;20.82;41.89
70841;BME280;58465;51.534;9.934;2022-07-29T06:16:42;99947.31;;;20.79;42.00
70841;BME280;58465;51.534;9.934;2022-07-29T06:19:08;99958.50;;;20.74;42.24
70841;BME280;58465;51.534;9.934;2022-07-29T06:21:33;99949.16;;;20.78;42.43
70841;BME280;58465;51.534;9.934;2022-07-29T06:23:58;99955.28;;;20.82;42.27
70841;BME280;58465;51.534;9.934;2022-07-29T06:26:24;99952.38;;;20.85;42.02
70841;BME280;58465;51.534;9.934;2022-07-29T06:28:49;99949.50;;;20.86;41.92
70841;BME280;58465;51.534;9.934;2022-07-29T06:31:14;99941.97;;;20.91;41.83
70841;BME280;58465;51.534;9.934;2022-07-29T06:33:40;99944.59;;;21.05;42.28
70841;BME280;58465;51.534;9.934;2022-07-29T06:36:05;99939.06;;;21.34;41.54
70841;BME280;58465;51.534;9.934;2022-07-29T06:38:31;99942.28;;;21.66;41.07
70841;BME280;58465;51.534;9.934;2022-07-29T06:40:57;99949.47;;;21.92;40.45
70841;BME280;58465;51.534;9.934;2022-07-29T06:43:34;99946.25;;;22.12;40.06
70841;BME280;58465;51.534;9.934;2022-07-29T06:46:06;99946.56;;;22.20;40.04
70841;BME280;58465;51.534;9.934;2022-07-29T06:48:32;99949.16;;;22.22;40.06
70841;BME280;58465;51.534;9.934;2022-07-29T06:50:58;99943.84;;;22.33;39.38
70841;BME280;58465;51.534;9.934;2022-07-29T06:53:24;99944.50;;;22.37;39.05
70841;BME280;58465;51.534;9.934;2022-07-29T06:55:50;99948.72;;;22.41;39.18
70841;BME280;58465;51.534;9.934;2022-07-29T06:58:15;99943.94;;;22.44;38.89
70841;BME280;58465;51.534;9.934;2022-07-29T07:00:43;99947.53;;;22.45;38.41
70841;BME280;58465;51.534;9.934;2022-07-29T07:03:09;99950.75;;;22.63;38.13
70841;BME280;58465;51.534;9.934;2022-07-29T07:05:34;99951.81;;;22.73;37.98
70841;BME280;58465;51.534;9.934;2022-07-29T07:08:00;99959.00;;;22.86;37.16
70841;BME280;58465;51.534;9.934;2022-07-29T07:10:25;99953.66;;;23.09;37.12
70841;BME280;58465;51.534;9.934;2022-07-29T07:12:50;99957.19;;;23.22;36.60
70841;BME280;58465;51.534;9.934;2022-07-29T07:15:15;99955.09;;;23.02;36.86
70841;BME280;58465;51.534;9.934;2022-07-29T07:17:41;99954.88;;;22.68;37.50
70841;BME280;58465;51.534;9.934;2022-07-29T07:20:06;99955.84;;;22.67;37.36
70841;BME280;58465;51.534;9.934;2022-07-29T07:22:32;99955.53;;;22.59;37.80
70841;BME280;58465;51.534;9.934;2022-07-29T07:24:57;99949.66;;;22.65;37.38
70841;BME280;58465;51.534;9.934;2022-07-29T07:27:22;99957.72;;;22.67;37.51
70841;BME280;58465;51.534;9.934;2022-07-29T07:29:48;99958.22;;;22.84;36.87
70841;BME280;58465;51.534;9.934;2022-07-29T07:32:13;99956.97;;;23.01;36.08
70841;BME280;58465;51.534;9.934;2022-07-29T07:34:41;99962.09;;;23.17;36.30
70841;BME280;58465;51.534;9.934;2022-07-29T07:37:06;99955.00;;;23.51;35.48
70841;BME280;58465;51.534;9.934;2022-07-29T07:39:31;99952.50;;;23.83;35.07
70841;BME280;58465;51.534;9.934;2022-07-29T07:41:57;99955.63;;;24.00;34.72
70841;BME280;58465;51.534;9.934;2022-07-29T07:44:22;99953.97;;;23.87;34.93
70841;BME280;58465;51.534;9.934;2022-07-29T07:46:47;99956.56;;;23.88;34.89
70841;BME280;58465;51.534;9.934;2022-07-29T07:49:12;99952.34;;;23.84;35.05
70841;BME280;58465;51.534;9.934;2022-07-29T07:51:39;99955.50;;;24.02;35.03
70841;BME280;58465;51.534;9.934;2022-07-29T07:54:04;99956.22;;;23.93;34.84
70841;BME280;58465;51.534;9.934;2022-07-29T07:56:29;99957.94;;;23.83;34.86
70841;BME280;58465;51.534;9.934;2022-07-29T07:58:55;99960.16;;;23.78;35.17
70841;BME280;58465;51.534;9.934;2022-07-29T08:01:20;99957.31;;;23.79;35.29
70841;BME280;58465;51.534;9.934;2022-07-29T08:03:48;99959.06;;;23.91;34.40
70841;BME280;58465;51.534;9.934;2022-07-29T08:06:13;99962.06;;;23.99;34.59
70841;BME280;58465;51.534;9.934;2022-07-29T08:08:39;99968.88;;;24.05;34.31
70841;BME280;58465;51.534;9.934;2022-07-29T08:11:04;99972.03;;;24.34;33.78
70841;BME280;58465;51.534;9.934;2022-07-29T08:13:31;99970.53;;;24.63;33.46
70841;BME280;58465;51.534;9.934;2022-07-29T08:15:57;99969.19;;;24.69;32.65
70841;BME280;58465;51.534;9.934;2022-07-29T08:18:23;99974.66;;;24.58;32.89
70841;BME280;58465;51.534;9.934;2022-07-29T08:20:50;99975.88;;;24.42;32.76
70841;BME280;58465;51.534;9.934;2022-07-29T08:23:15;99972.91;;;24.23;33.54
70841;BME280;58465;51.534;9.934;2022-07-29T08:25:41;99977.03;;;24.40;33.37
70841;BME280;58465;51.534;9.934;2022-07-29T08:28:07;99971.88;;;24.80;32.73
70841;BME280;58465;51.534;9.934;2022-07-29T08:30:32;99976.53;;;25.23;32.13
70841;BME280;58465;51.534;9.934;2022-07-29T08:32:58;99970.03;;;25.35;31.75
70841;BME280;58465;51.534;9.934;2022-07-29T08:35:24;99966.19;;;25.58;31.49
70841;BME280;58465;51.534;9.934;2022-07-29T08:37:51;99967.47;;;25.65;31.31
70841;BME280;58465;51.534;9.934;2022-07-29T08:40:16;99960.84;;;25.68;30.97
70841;BME280;58465;51.534;9.934;2022-07-29T08:42:42;99958.56;;;25.41;31.37
70841;BME280;58465;51.534;9.934;2022-07-29T08:45:08;99957.72;;;25.08;31.92
70841;BME280;58465;51.534;9.934;2022-07-29T08:47:33;99965.44;;;25.35;31.54
70841;BME280;58465;51.534;9.934;2022-07-29T08:50:01;99957.34;;;25.45;31.56
70841;BME280;58465;51.534;9.934;2022-07-29T08:52:28;99963.53;;;25.47;31.52
70841;BME280;58465;51.534;9.934;2022-07-29T08:54:57;99949.19;;;25.66;31.12
70841;BME280;58465;51.534;9.934;2022-07-29T08:57:24;99951.09;;;25.96;30.99
70841;BME280;58465;51.534;9.934;2022-07-29T08:59:52;99942.63;;;25.99;30.74
70841;BME280;58465;51.534;9.934;2022-07-29T09:02:20;99938.69;;;25.71;30.92
70841;BME280;58465;51.534;9.934;2022-07-29T09:04:46;99927.75;;;25.39;31.69
70841;BME280;58465;51.534;9.934;2022-07-29T09:07:15;99929.16;;;25.01;32.29
70841;BME280;58465;51.534;9.934;2022-07-29T09:09:41;99940.50;;;24.63;33.31
70841;BME280;58465;51.534;9.934;2022-07-29T09:12:07;99928.00;;;24.38;33.46
70841;BME280;58465;51.534;9.934;2022-07-29T09:14:33;99918.91;;;24.04;34.14
70841;BME280;58465;51.534;9.934;2022-07-29T09:16:59;99911.56;;;23.83;34.42
70841;BME280;58465;51.534;9.934;2022-07-29T09:19:29;99919.03;;;23.92;34.25
70841;BME280;58465;51.534;9.934;2022-07-29T09:21:57;99910.34;;;23.98;34.34
70841;BME280;58465;51.534;9.934;2022-07-29T09:24:23;99905.13;;;24.06;34.09
70841;BME280;58465;51.534;9.934;2022-07-29T09:26:49;99913.31;;;23.95;33.97
70841;BME280;58465;51.534;9.934;2022-07-29T09:29:19;99909.81;;;23.71;34.28
70841;BME280;58465;51.534;9.934;2022-07-29T09:31:46;99908.69;;;23.62;34.88
70841;BME280;58465;51.534;9.934;2022-07-29T09:34:14;99914.03;;;23.63;34.72
70841;BME280;58465;51.534;9.934;2022-07-29T09:36:40;99916.75;;;23.63;34.83
70841;BME280;58465;51.534;9.934;2022-07-29T09:39:05;99915.00;;;23.62;34.63
70841;BME280;58465;51.534;9.934;2022-07-29T09:41:44;99922.53;;;23.59;35.52
70841;BME280;58465;51.534;9.934;2022-07-29T09:44:10;99921.03;;;23.55;35.55
70841;BME280;58465;51.534;9.934;2022-07-29T09:46:35;99915.97;;;23.50;36.08
70841;BME280;58465;51.534;9.934;2022-07-29T09:49:12;99926.03;;;23.37;36.73
70841;BME280;58465;51.534;9.934;2022-07-29T09:51:38;99918.28;;;23.20;36.68
70841;BME280;58465;51.534;9.934;2022-07-29T09:54:23;99918.00;;;23.12;36.94
70841;BME280;58465;51.534;9.934;2022-07-29T09:56:49;99917.03;;;23.13;36.59
70841;BME280;58465;51.534;9.934;2022-07-29T09:59:15;99916.03;;;23.14;36.95
70841;BME280;58465;51.534;9.934;2022-07-29T10:01:41;99914.41;;;23.11;36.90
70841;BME280;58465;51.534;9.934;2022-07-29T10:04:07;99908.03;;;23.23;36.74
70841;BME280;58465;51.534;9.934;2022-07-29T10:06:32;99920.34;;;23.40;36.13
70841;BME280;58465;51.534;9.934;2022-07-29T10:09:25;99909.22;;;23.43;36.24
70841;BME280;58465;51.534;9.934;2022-07-29T10:12:04;99901.22;;;23.53;36.27
70841;BME280;58465;51.534;9.934;2022-07-29T10:14:33;99904.97;;;23.63;35.83
70841;BME280;58465;51.534;9.934;2022-07-29T10:16:59;99908.34;;;23.78;35.74
70841;BME280;58465;51.534;9.934;2022-07-29T10:19:26;99908.59;;;23.97;35.61
70841;BME280;58465;51.534;9.934;2022-07-29T10:21:51;99903.94;;;24.21;34.83
70841;BME280;58465;51.534;9.934;2022-07-29T10:24:17;99906.50;;;24.56;34.29
70841;BME280;58465;51.534;9.934;2022-07-29T10:26:43;99901.34;;;24.85;33.93
70841;BME280;58465;51.534;9.934;2022-07-29T10:29:11;99906.25;;;25.13;33.37
70841;BME280;58465;51.534;9.934;2022-07-29T10:31:45;99894.31;;;25.67;32.16
70841;BME280;58465;51.534;9.934;2022-07-29T10:34:32;99891.50;;;25.99;31.79
70841;BME280;58465;51.534;9.934;2022-07-29T10:37:15;99898.97;;;26.58;30.44
70841;BME280;58465;51.534;9.934;2022-07-29T10:40:43;99896.06;;;27.00;29.69
70841;BME280;58465;51.534;9.934;2022-07-29T10:43:22;99891.84;;;27.82;28.92
70841;BME280;58465;51.534;9.934;2022-07-29T10:45:55;99888.72;;;27.58;29.22
70841;BME280;58465;51.534;9.934;2022-07-29T10:48:21;99884.25;;;27.57;29.36
70841;BME280;58465;51.534;9.934;2022-07-29T10:50:57;99892.31;;;27.49;29.38
70841;BME280;58465;51.534;9.934;2022-07-29T10:53:24;99888.13;;;27.64;29.19
70841;BME280;58465;51.534;9.934;2022-07-29T10:55:51;99886.53;;;27.71;29.19
70841;BME280;58465;51.534;9.934;2022-07-29T10:58:22;99881.19;;;27.50;29.96
70841;BME280;58465;51.534;9.934;2022-07-29T11:00:53;99879.63;;;27.57;29.86
70841;BME280;58465;51.534;9.934;2022-07-29T11:03:44;99878.28;;;27.81;29.45
70841;BME280;58465;51.534;9.934;2022-07-29T11:06:12;99871.81;;;28.09;29.19
70841;BME280;58465;51.534;9.934;2022-07-29T11:08:37;99868.94;;;28.11;29.12
70841;BME280;58465;51.534;9.934;2022-07-29T11:11:35;99872.25;;;28.24;28.78
70841;BME280;58465;51.534;9.934;2022-07-29T11:14:01;99861.84;;;28.72;28.43
70841;BME280;58465;51.534;9.934;2022-07-29T11:17:00;99857.50;;;29.15;27.42
70841;BME280;58465;51.534;9.934;2022-07-29T11:19:28;99864.66;;;29.43;27.38
70841;BME280;58465;51.534;9.934;2022-07-29T11:21:53;99865.72;;;29.68;26.99
70841;BME280;58465;51.534;9.934;2022-07-29T11:24:21;99868.25;;;29.44;27.30
70841;BME280;58465;51.534;9.934;2022-07-29T11:29:48;99871.06;;;29.52;27.37
70841;BME280;58465;51.534;9.934;2022-07-29T11:32:15;99865.00;;;29.40;27.60
70841;BME280;58465;51.534;9.934;2022-07-29T11:34:43;99866.81;;;30.01;26.97
70841;BME280;58465;51.534;9.934;2022-07-29T11:47:30;99855.50;;;30.88;24.53
70841;BME280;58465;51.534;9.934;2022-07-29T11:49:57;99846.78;;;31.09;24.39
70841;BME280;58465;51.534;9.934;2022-07-29T11:52:23;99839.19;;;31.11;24.32
70841;BME280;58465;51.534;9.934;2022-07-29T11:54:50;99836.09;;;31.79;23.72
70841;BME280;58465;51.534;9.934;2022-07-29T11:57:17;99846.38;;;32.10;23.01
70841;BME280;58465;51.534;9.934;2022-07-29T11:59:45;99842.97;;;32.47;22.44
70841;BME280;58465;51.534;9.934;2022-07-29T12:02:11;99843.59;;;32.96;21.76
70841;BME280;58465;51.534;9.934;2022-07-29T12:04:56;99838.78;;;32.51;21.52
70841;BME280;58465;51.534;9.934;2022-07-29T12:07:30;99830.09;;;32.62;21.92
70841;BME280;58465;51.534;9.934;2022-07-29T12:09:56;99833.47;;;32.41;22.09
70841;BME280;58465;51.534;9.934;2022-07-29T12:12:21;99821.09;;;32.68;21.95
70841;BME280;58465;51.534;9.934;2022-07-29T12:14:47;99827.63;;;33.06;21.16
70841;BME280;58465;51.534;9.934;2022-07-29T12:17:32;99820.47;;;33.11;20.51
70841;BME280;58465;51.534;9.934;2022-07-29T12:20:00;99822.84;;;33.98;20.12
70841;BME280;58465;51.534;9.934;2022-07-29T12:22:29;99826.50;;;32.92;20.71
70841;BME280;58465;51.534;9.934;2022-07-29T12:24:55;99818.38;;;32.13;21.13
70841;BME280;58465;51.534;9.934;2022-07-29T12:27:21;99813.09;;;32.42;21.34
70841;BME280;58465;51.534;9.934;2022-07-29T12:30:02;99804.53;;;32.91;20.34
70841;BME280;58465;51.534;9.934;2022-07-29T12:32:31;99810.09;;;33.13;20.13
70841;BME280;58465;51.534;9.934;2022-07-29T12:34:57;99805.28;;;33.30;20.45
70841;BME280;58465;51.534;9.934;2022-07-29T12:37:22;99808.50;;;33.79;19.81
70841;BME280;58465;51.534;9.934;2022-07-29T12:39:49;99809.78;;;35.29;18.16
70841;BME280;58465;51.534;9.934;2022-07-29T12:42:15;99795.41;;;36.30;17.33
70841;BME280;58465;51.534;9.934;2022-07-29T12:44:48;99799.47;;;35.72;17.48
70841;BME280;58465;51.534;9.934;2022-07-29T12:47:15;99784.31;;;34.32;18.91
70841;BME280;58465;51.534;9.934;2022-07-29T12:49:40;99789.78;;;34.61;19.07
70841;BME280;58465;51.534;9.934;2022-07-29T12:52:25;99790.59;;;34.55;18.86
70841;BME280;58465;51.534;9.934;2022-07-29T12:54:51;99775.63;;;34.20;19.31
70841;BME280;58465;51.534;9.934;2022-07-29T12:57:16;99782.69;;;33.94;19.75
70841;BME280;58465;51.534;9.934;2022-07-29T12:59:41;99768.34;;;34.19;19.32
70841;BME280;58465;51.534;9.934;2022-07-29T13:02:20;99777.94;;;35.74;18.31
70841;BME280;58465;51.534;9.934;2022-07-29T13:04:55;99764.22;;;36.41;17.46
70841;BME280;58465;51.534;9.934;2022-07-29T13:07:32;99767.16;;;36.94;16.78
70841;BME280;58465;51.534;9.934;2022-07-29T13:10:11;99777.09;;;36.56;17.53
70841;BME280;58465;51.534;9.934;2022-07-29T13:12:37;99774.31;;;36.56;17.91
70841;BME280;58465;51.534;9.934;2022-07-29T13:15:16;99772.31;;;36.91;17.98
70841;BME280;58465;51.534;9.934;2022-07-29T13:17:42;99774.50;;;37.87;17.25
70841;BME280;58465;51.534;9.934;2022-07-29T13:20:10;99768.44;;;39.38;15.92
70841;BME280;58465;51.534;9.934;2022-07-29T13:22:37;99781.00;;;40.39;14.75
70841;BME280;58465;51.534;9.934;2022-07-29T13:25:03;99767.06;;;41.41;13.86